Time;durP1;ratioP1;P1;durP2;ratioP2;P2;SDS_P1;SDS_P2;PMS_P1;PMS_P2;Temp;Humidity;BMP_temperature;BMP_pressure;BME280_temperature;BME280_humidity;BME280_pressure;Samples;Min_cycle;Max_cycle;Signal;HPM_P1;HPM_P2
2023/07/14 00:01:56;;;;;;;1.30;0.93;;;20.00;72.00;;;;;;4951740;28;20050;-18
2023/07/14 00:04:28;;;;;;;1.35;1.00;;;19.90;72.00;;;;;;4951572;28;20058;-18
2023/07/14 00:06:54;;;;;;;1.67;1.10;;;20.00;72.50;;;;;;4955561;28;23180;-18
2023/07/14 00:09:25;;;;;;;1.10;1.00;;;19.90;72.30;;;;;;4964172;28;20027;-18
2023/07/14 00:11:51;;;;;;;1.40;1.00;;;19.90;72.50;;;;;;4974299;28;20034;-18
2023/07/14 00:14:17;;;;;;;1.95;1.00;;;19.80;72.20;;;;;;4962168;28;20589;-19
2023/07/14 00:16:44;;;;;;;1.30;0.90;;;19.80;72.30;;;;;;4927885;28;20034;-18
2023/07/14 00:19:15;;;;;;;1.02;0.80;;;19.80;72.40;;;;;;4964207;28;20029;-19
2023/07/14 00:21:42;;;;;;;1.40;1.00;;;19.70;72.70;;;;;;4966838;28;20050;-19
2023/07/14 00:24:12;;;;;;;1.55;0.80;;;19.70;72.50;;;;;;4956156;28;20632;-18
2023/07/14 00:26:40;;;;;;;2.33;1.00;;;19.70;72.80;;;;;;4954254;28;20026;-18
2023/07/14 00:29:35;;;;;;;1.03;0.80;;;19.60;72.80;;;;;;4955065;28;20042;-18
2023/07/14 00:32:02;;;;;;;1.80;0.90;;;19.60;73.70;;;;;;4942945;28;20294;-19
2023/07/14 00:34:29;;;;;;;1.50;0.90;;;19.50;72.60;;;;;;4980832;28;20023;-18
2023/07/14 00:36:55;;;;;;;1.73;1.00;;;19.50;72.70;;;;;;4956552;28;20472;-19
2023/07/14 00:39:20;;;;;;;2.40;1.13;;;19.50;72.80;;;;;;4967208;28;20049;-18
2023/07/14 00:41:47;;;;;;;1.20;0.97;;;19.40;72.90;;;;;;4962000;28;20288;-19
2023/07/14 00:44:16;;;;;;;1.75;0.90;;;19.40;73.00;;;;;;4956629;28;20361;-18
2023/07/14 00:46:44;;;;;;;1.20;0.95;;;19.30;74.00;;;;;;4958127;28;20026;-18
2023/07/14 00:49:26;;;;;;;2.53;1.10;;;19.30;73.20;;;;;;4955350;28;20106;-18
2023/07/14 00:51:53;;;;;;;1.27;0.80;;;19.30;73.90;;;;;;4956682;28;20121;-19
2023/07/14 00:54:28;;;;;;;2.03;1.00;;;19.30;73.30;;;;;;4983808;28;20042;-18
2023/07/14 00:56:55;;;;;;;1.98;0.93;;;19.20;73.90;;;;;;4954910;28;20532;-19
2023/07/14 00:59:27;;;;;;;2.17;0.90;;;19.20;73.40;;;;;;4960002;28;20026;-18
2023/07/14 01:02:25;;;;;;;1.70;1.07;;;19.10;73.50;;;;;;4940832;28;20058;-19
2023/07/14 01:04:59;;;;;;;2.15;1.00;;;19.10;74.70;;;;;;4981365;28;20039;-18
2023/07/14 01:07:39;;;;;;;1.63;0.82;;;19.10;74.00;;;;;;4956253;28;20034;-18
2023/07/14 01:10:08;;;;;;;1.63;0.90;;;19.10;73.90;;;;;;4963230;28;20248;-18
2023/07/14 01:12:37;;;;;;;1.83;1.00;;;19.00;73.80;;;;;;4969387;28;20042;-18
2023/07/14 01:15:05;;;;;;;1.70;1.00;;;19.00;74.00;;;;;;4951498;28;20314;-18
2023/07/14 01:17:32;;;;;;;1.80;0.90;;;19.00;74.20;;;;;;4966675;28;20038;-18
2023/07/14 01:20:00;;;;;;;1.23;0.80;;;19.00;74.10;;;;;;4941762;28;20034;-18
2023/07/14 01:22:43;;;;;;;2.25;1.10;;;19.00;74.30;;;;;;4967329;28;20496;-18
2023/07/14 01:25:29;;;;;;;2.03;0.90;;;18.90;75.10;;;;;;4959027;28;20046;-18
2023/07/14 01:27:55;;;;;;;1.40;0.97;;;18.90;75.40;;;;;;4963443;28;20096;-18
2023/07/14 01:30:21;;;;;;;1.92;1.05;;;18.90;74.30;;;;;;4964735;28;22255;-18
2023/07/14 01:32:49;;;;;;;1.33;1.00;;;18.90;74.50;;;;;;4966143;28;20045;-18
2023/07/14 01:35:17;;;;;;;2.15;0.88;;;18.90;74.70;;;;;;4943160;28;20034;-18
2023/07/14 01:37:45;;;;;;;1.47;0.80;;;18.90;74.80;;;;;;4960683;28;20370;-18
2023/07/14 01:40:15;;;;;;;2.55;0.93;;;18.80;74.80;;;;;;4959810;28;20026;-18
2023/07/14 01:42:48;;;;;;;2.25;1.10;;;18.80;75.00;;;;;;4965781;28;20066;-18
2023/07/14 01:45:17;;;;;;;1.42;1.00;;;18.80;75.30;;;;;;4959475;28;20088;-18
2023/07/14 01:47:47;;;;;;;2.38;1.00;;;18.80;75.10;;;;;;4958660;28;20072;-19
2023/07/14 01:50:36;;;;;;;1.50;0.93;;;18.80;75.10;;;;;;4935576;28;20149;-18
2023/07/14 01:53:08;;;;;;;0.95;0.90;;;18.80;75.80;;;;;;4957380;28;20301;-18
2023/07/14 01:55:37;;;;;;;3.67;1.15;;;18.70;75.10;;;;;;4965509;28;20156;-19
2023/07/14 01:58:07;;;;;;;1.52;1.00;;;18.70;75.00;;;;;;4966299;28;20544;-18
2023/07/14 02:00:35;;;;;;;1.42;1.05;;;18.70;75.20;;;;;;4955115;28;20527;-18
2023/07/14 02:03:04;;;;;;;2.30;1.10;;;18.70;75.10;;;;;;4956198;28;20693;-19
2023/07/14 02:05:33;;;;;;;2.75;1.00;;;18.60;75.00;;;;;;4943774;28;20030;-18
2023/07/14 02:08:02;;;;;;;1.67;0.98;;;18.60;75.20;;;;;;4951196;28;20142;-19
2023/07/14 02:10:28;;;;;;;3.30;0.95;;;18.50;75.20;;;;;;4985062;28;20042;-18
2023/07/14 02:12:55;;;;;;;1.60;1.10;;;18.50;75.10;;;;;;4960675;28;20745;-19
2023/07/14 02:15:27;;;;;;;1.80;1.00;;;18.50;75.30;;;;;;4953207;28;20057;-18
2023/07/14 02:17:56;;;;;;;1.73;1.00;;;18.40;75.70;;;;;;4957085;28;20793;-19
2023/07/14 02:20:35;;;;;;;2.63;1.30;;;18.40;75.40;;;;;;4939993;28;20042;-19
2023/07/14 02:23:04;;;;;;;2.47;1.20;;;18.40;75.80;;;;;;4950462;28;20042;-18
2023/07/14 02:25:38;;;;;;;2.40;1.20;;;18.30;75.50;;;;;;4968343;28;20057;-18
2023/07/14 02:28:04;;;;;;;2.45;1.15;;;18.30;75.90;;;;;;4962211;28;20668;-18
2023/07/14 02:30:32;;;;;;;1.95;1.10;;;18.30;75.40;;;;;;4965851;28;20030;-18
2023/07/14 02:33:07;;;;;;;2.22;1.10;;;18.30;75.60;;;;;;4945254;28;20053;-18
2023/07/14 02:36:04;;;;;;;3.30;1.20;;;18.30;76.00;;;;;;4963533;28;20039;-19
2023/07/14 02:38:30;;;;;;;1.98;1.15;;;18.20;76.20;;;;;;4968006;28;20030;-18
2023/07/14 02:41:08;;;;;;;2.13;1.30;;;18.30;75.50;;;;;;4951073;28;20026;-18
2023/07/14 02:43:33;;;;;;;3.15;1.25;;;18.20;76.20;;;;;;4965769;28;20688;-18
2023/07/14 02:46:19;;;;;;;2.67;1.10;;;18.20;75.50;;;;;;4948921;28;20329;-18
2023/07/14 02:48:49;;;;;;;1.73;1.10;;;18.20;76.40;;;;;;4959015;28;20107;-19
2023/07/14 02:51:15;;;;;;;2.28;1.13;;;18.20;75.90;;;;;;4962028;28;20030;-18
2023/07/14 02:53:40;;;;;;;2.13;1.23;;;18.10;75.70;;;;;;4937719;28;20065;-19
2023/07/14 02:56:06;;;;;;;3.17;1.30;;;18.20;75.80;;;;;;4953599;28;20224;-19
2023/07/14 02:58:33;;;;;;;2.47;1.10;;;18.10;75.70;;;;;;4967039;28;20030;-18
2023/07/14 03:00:59;;;;;;;2.65;1.30;;;18.10;75.90;;;;;;4954019;28;20249;-18
2023/07/14 03:03:25;;;;;;;2.53;1.20;;;18.10;75.90;;;;;;4965111;28;20022;-18
2023/07/14 03:05:54;;;;;;;2.43;1.40;;;18.20;76.00;;;;;;4955678;28;20480;-19
2023/07/14 03:08:20;;;;;;;2.58;1.20;;;18.20;76.10;;;;;;4937725;28;20333;-18
2023/07/14 03:10:49;;;;;;;2.13;1.17;;;18.20;76.10;;;;;;4951160;28;20589;-19
2023/07/14 03:13:16;;;;;;;3.63;1.20;;;18.20;76.30;;;;;;4964162;28;20923;-19
2023/07/14 03:15:43;;;;;;;2.20;1.20;;;18.10;76.40;;;;;;4963773;28;20084;-19
2023/07/14 03:18:09;;;;;;;3.20;1.40;;;18.20;76.40;;;;;;4952140;28;20038;-19
2023/07/14 03:20:37;;;;;;;3.30;1.20;;;18.20;76.40;;;;;;4970038;28;20434;-18
2023/07/14 03:23:04;;;;;;;2.55;1.40;;;18.20;76.50;;;;;;4941540;28;20172;-19
2023/07/14 03:25:29;;;;;;;2.22;1.10;;;18.20;76.50;;;;;;4969243;28;20027;-19
2023/07/14 03:27:55;;;;;;;2.57;1.30;;;18.20;76.50;;;;;;4968068;28;20037;-19
2023/07/14 03:30:21;;;;;;;2.72;1.38;;;18.20;76.40;;;;;;4964471;28;20027;-18
2023/07/14 03:32:47;;;;;;;3.00;1.27;;;18.20;76.40;;;;;;4957394;28;20041;-19
2023/07/14 03:35:13;;;;;;;3.25;1.40;;;18.10;76.30;;;;;;4952348;28;20410;-18
2023/07/14 03:37:40;;;;;;;2.78;1.33;;;18.20;76.30;;;;;;4961958;28;20125;-19
2023/07/14 03:40:06;;;;;;;2.93;1.30;;;18.10;76.30;;;;;;4942730;28;20331;-18
2023/07/14 03:42:33;;;;;;;2.25;1.30;;;18.10;76.30;;;;;;4952892;28;20030;-18
2023/07/14 03:44:58;;;;;;;1.92;1.10;;;18.00;76.40;;;;;;4961194;28;20039;-18
2023/07/14 03:47:24;;;;;;;2.05;1.13;;;18.00;76.50;;;;;;4976125;28;20094;-18
2023/07/14 03:49:50;;;;;;;2.93;1.40;;;18.00;76.70;;;;;;4952089;28;20582;-19
2023/07/14 03:52:16;;;;;;;2.50;1.20;;;17.90;76.70;;;;;;4956312;28;20564;-18
2023/07/14 03:54:41;;;;;;;2.55;1.30;;;17.90;76.70;;;;;;4934316;28;20624;-19
2023/07/14 03:57:07;;;;;;;2.13;1.07;;;17.90;76.80;;;;;;4948521;28;20256;-18
2023/07/14 03:59:33;;;;;;;1.90;1.10;;;17.80;76.90;;;;;;4945001;28;20042;-18
2023/07/14 04:01:59;;;;;;;1.95;1.20;;;17.80;77.00;;;;;;4963103;28;20050;-19
2023/07/14 04:04:25;;;;;;;2.28;1.13;;;17.80;77.30;;;;;;4966972;28;20046;-18
2023/07/14 04:06:50;;;;;;;2.60;1.10;;;17.80;77.30;;;;;;4958369;28;20370;-19
2023/07/14 04:09:16;;;;;;;2.75;1.20;;;17.80;77.50;;;;;;4961147;28;20477;-18
2023/07/14 04:11:43;;;;;;;1.87;1.30;;;17.80;77.50;;;;;;4918066;28;20030;-18
2023/07/14 04:14:09;;;;;;;2.47;1.02;;;17.80;77.70;;;;;;4972295;28;20482;-18
2023/07/14 04:16:35;;;;;;;1.92;1.10;;;17.80;77.80;;;;;;4981853;28;20043;-18
2023/07/14 04:19:02;;;;;;;2.72;1.50;;;17.80;77.80;;;;;;4964022;28;20173;-18
2023/07/14 04:21:30;;;;;;;1.60;1.00;;;17.80;78.00;;;;;;4958613;28;20489;-18
2023/07/14 04:23:56;;;;;;;2.50;1.20;;;17.90;78.10;;;;;;4955912;28;20179;-18
2023/07/14 04:26:24;;;;;;;2.97;1.30;;;17.80;78.10;;;;;;4942707;28;20038;-18
2023/07/14 04:28:50;;;;;;;2.88;1.10;;;17.90;78.10;;;;;;4940866;28;20036;-18
2023/07/14 04:31:17;;;;;;;2.97;1.30;;;17.90;78.00;;;;;;4963491;28;20022;-19
2023/07/14 04:33:48;;;;;;;2.97;1.10;;;17.90;78.00;;;;;;4968361;28;20030;-18
2023/07/14 04:36:14;;;;;;;1.80;1.10;;;18.00;78.30;;;;;;4951376;28;20101;-19
2023/07/14 04:38:42;;;;;;;2.67;1.20;;;18.00;77.90;;;;;;4964547;28;20022;-19
2023/07/14 04:41:11;;;;;;;2.60;1.23;;;18.00;77.90;;;;;;4939459;28;20534;-19
2023/07/14 04:43:38;;;;;;;3.07;1.20;;;18.00;77.80;;;;;;4971264;28;20039;-18
2023/07/14 04:46:04;;;;;;;2.65;1.10;;;18.00;77.70;;;;;;4954909;28;20033;-19
2023/07/14 04:48:29;;;;;;;1.70;1.20;;;18.00;77.70;;;;;;4968548;28;20224;-18
2023/07/14 04:50:55;;;;;;;1.67;1.00;;;18.00;77.70;;;;;;4964274;28;20029;-19
2023/07/14 04:53:21;;;;;;;2.20;1.40;;;18.00;77.70;;;;;;4943773;28;20285;-18
2023/07/14 04:55:48;;;;;;;2.35;1.20;;;18.00;77.80;;;;;;4968454;28;20574;-18
2023/07/14 04:58:17;;;;;;;1.60;1.20;;;18.10;77.90;;;;;;4922445;28;20068;-18
2023/07/14 05:00:45;;;;;;;2.50;1.10;;;18.10;78.10;;;;;;4967276;28;20019;-18
2023/07/14 05:03:11;;;;;;;2.00;1.30;;;18.10;78.10;;;;;;4937420;28;20058;-18
2023/07/14 05:05:37;;;;;;;2.63;1.30;;;18.20;78.30;;;;;;4946987;28;20121;-19
2023/07/14 05:08:03;;;;;;;2.55;1.48;;;18.20;78.30;;;;;;4943090;28;20276;-18
2023/07/14 05:10:31;;;;;;;2.10;1.40;;;18.20;78.30;;;;;;4957036;28;20037;-18
2023/07/14 05:12:57;;;;;;;2.47;1.33;;;18.30;78.50;;;;;;4924749;28;20369;-18
2023/07/14 05:15:26;;;;;;;2.33;1.20;;;18.30;78.60;;;;;;4967976;28;20022;-18
2023/07/14 05:17:52;;;;;;;1.95;1.13;;;18.40;78.80;;;;;;4952624;28;20038;-18
2023/07/14 05:20:19;;;;;;;1.38;1.00;;;18.40;78.60;;;;;;4967191;28;20126;-19
2023/07/14 05:22:48;;;;;;;1.43;1.10;;;18.50;78.70;;;;;;4949984;28;20367;-19
2023/07/14 05:25:15;;;;;;;2.60;1.50;;;18.60;78.80;;;;;;4952848;28;20642;-19
2023/07/14 05:27:44;;;;;;;2.70;1.40;;;18.60;78.70;;;;;;4946961;28;20022;-19
2023/07/14 05:30:17;;;;;;;1.98;1.17;;;18.60;78.70;;;;;;4961060;28;20038;-19
2023/07/14 05:32:43;;;;;;;2.95;1.20;;;18.70;78.90;;;;;;4957105;28;20133;-19
2023/07/14 05:35:11;;;;;;;3.00;1.30;;;18.70;78.80;;;;;;4951202;28;20446;-18
2023/07/14 05:37:37;;;;;;;3.67;1.17;;;18.80;78.80;;;;;;4954316;28;20030;-19
2023/07/14 05:40:06;;;;;;;2.20;1.30;;;18.80;78.70;;;;;;4956213;28;20982;-19
2023/07/14 05:42:32;;;;;;;1.35;1.05;;;18.90;78.70;;;;;;4957209;28;20037;-18
2023/07/14 05:44:58;;;;;;;1.58;1.00;;;18.90;78.70;;;;;;4947383;28;20033;-18
2023/07/14 05:47:26;;;;;;;1.87;1.20;;;18.90;78.60;;;;;;4966007;28;20408;-18
2023/07/14 05:49:52;;;;;;;2.03;1.23;;;19.00;78.70;;;;;;4953063;28;20073;-18
2023/07/14 05:52:18;;;;;;;1.90;1.00;;;19.00;78.70;;;;;;4965121;28;20652;-17
2023/07/14 05:54:45;;;;;;;2.15;1.10;;;19.10;78.90;;;;;;4947893;28;20043;-19
2023/07/14 05:57:11;;;;;;;2.57;1.30;;;19.10;78.90;;;;;;4954576;28;20493;-18
2023/07/14 05:59:37;;;;;;;1.77;1.20;;;19.20;78.90;;;;;;4951942;28;20132;-19
2023/07/14 06:02:03;;;;;;;3.40;1.48;;;19.20;78.90;;;;;;4964688;28;20230;-18
2023/07/14 06:04:30;;;;;;;2.00;1.20;;;19.30;79.00;;;;;;4959730;28;20052;-19
2023/07/14 06:06:56;;;;;;;3.35;1.30;;;19.40;79.20;;;;;;4961229;28;20106;-19
2023/07/14 06:09:22;;;;;;;2.03;1.30;;;19.40;79.30;;;;;;4955734;28;20084;-19
2023/07/14 06:11:48;;;;;;;3.15;1.40;;;19.50;79.40;;;;;;4958422;28;20429;-19
2023/07/14 06:14:13;;;;;;;2.47;1.40;;;19.60;79.50;;;;;;4939303;28;20611;-18
2023/07/14 06:16:39;;;;;;;2.80;1.20;;;19.70;80.30;;;;;;4962839;28;20109;-19
2023/07/14 06:19:05;;;;;;;2.67;1.33;;;19.80;79.50;;;;;;4954998;28;20192;-19
2023/07/14 06:21:31;;;;;;;2.40;1.30;;;19.90;79.20;;;;;;4963972;28;20073;-19
2023/07/14 06:23:56;;;;;;;2.30;1.13;;;20.00;79.00;;;;;;4952434;28;20286;-19
2023/07/14 06:26:22;;;;;;;3.30;1.20;;;20.10;78.90;;;;;;4965356;28;20037;-19
2023/07/14 06:28:48;;;;;;;3.63;1.50;;;20.10;78.70;;;;;;4950226;28;20057;-19
2023/07/14 06:31:14;;;;;;;2.77;1.10;;;20.20;78.60;;;;;;4933452;28;20022;-18
2023/07/14 06:33:40;;;;;;;2.05;1.20;;;20.20;78.50;;;;;;4961307;28;20053;-19
2023/07/14 06:36:07;;;;;;;2.65;1.25;;;20.30;78.40;;;;;;4950820;28;20242;-18
2023/07/14 06:38:34;;;;;;;1.73;1.00;;;20.30;78.20;;;;;;4962292;28;20030;-19
2023/07/14 06:41:07;;;;;;;3.70;1.35;;;20.40;78.20;;;;;;4953644;28;20132;-18
2023/07/14 06:43:32;;;;;;;3.30;1.10;;;20.40;78.20;;;;;;4950429;28;20394;-19
2023/07/14 06:45:59;;;;;;;2.45;1.20;;;20.50;78.40;;;;;;4935560;28;20037;-19
2023/07/14 06:48:26;;;;;;;1.98;1.05;;;20.50;78.40;;;;;;4962918;28;20028;-20
2023/07/14 06:50:53;;;;;;;3.13;1.42;;;20.60;78.40;;;;;;4951186;28;20022;-18
2023/07/14 06:53:19;;;;;;;3.20;1.40;;;20.70;78.30;;;;;;4958170;28;20030;-18
2023/07/14 06:55:45;;;;;;;2.97;1.35;;;20.70;78.00;;;;;;4949953;28;20042;-19
2023/07/14 06:58:12;;;;;;;2.42;1.50;;;20.80;78.00;;;;;;4965099;28;20325;-18
2023/07/14 07:00:37;;;;;;;1.90;1.27;;;20.90;77.90;;;;;;4928018;28;20045;-18
2023/07/14 07:03:04;;;;;;;2.83;1.20;;;21.00;78.00;;;;;;4966968;28;20034;-18
2023/07/14 07:05:37;;;;;;;2.25;1.42;;;21.10;78.00;;;;;;4958842;28;20041;-18
2023/07/14 07:08:04;;;;;;;2.95;1.23;;;21.10;77.30;;;;;;4961300;28;20554;-19
2023/07/14 07:10:30;;;;;;;2.10;1.23;;;21.20;77.40;;;;;;4959386;28;20697;-19
2023/07/14 07:12:56;;;;;;;2.10;1.25;;;21.20;77.30;;;;;;4965050;28;20304;-18
2023/07/14 07:15:22;;;;;;;3.20;1.40;;;21.30;77.20;;;;;;4955586;28;20698;-19
2023/07/14 07:17:48;;;;;;;2.40;1.30;;;21.30;77.20;;;;;;4930746;28;20103;-18
2023/07/14 07:20:14;;;;;;;2.57;1.30;;;21.40;77.10;;;;;;4966155;28;20041;-18
2023/07/14 07:22:41;;;;;;;2.27;1.30;;;21.40;77.00;;;;;;4968658;28;20281;-19
2023/07/14 07:25:08;;;;;;;2.35;1.25;;;21.50;76.90;;;;;;4961641;28;20556;-19
2023/07/14 07:27:33;;;;;;;2.50;1.20;;;21.60;76.80;;;;;;4950039;28;20030;-18
2023/07/14 07:30:00;;;;;;;2.10;1.30;;;21.60;76.90;;;;;;4950941;28;20660;-18
2023/07/14 07:32:27;;;;;;;2.72;1.20;;;21.70;77.10;;;;;;4935473;28;20023;-18
2023/07/14 07:34:53;;;;;;;2.50;1.40;;;21.80;76.90;;;;;;4959275;28;20484;-18
2023/07/14 07:37:19;;;;;;;2.85;1.30;;;21.90;76.80;;;;;;4965396;28;20579;-18
2023/07/14 07:39:46;;;;;;;3.17;1.55;;;22.10;76.80;;;;;;4952874;28;20802;-18
2023/07/14 07:42:12;;;;;;;2.03;1.27;;;22.10;76.70;;;;;;4950072;28;20440;-18
2023/07/14 07:44:39;;;;;;;1.70;1.02;;;22.20;76.50;;;;;;4952803;28;20030;-18
2023/07/14 07:47:05;;;;;;;1.58;1.20;;;22.30;76.20;;;;;;4944904;28;20275;-18
2023/07/14 07:49:31;;;;;;;1.73;1.30;;;22.40;75.90;;;;;;4963073;28;20035;-18
2023/07/14 07:51:56;;;;;;;3.97;1.40;;;22.50;75.90;;;;;;4948670;28;20202;-17
2023/07/14 07:54:22;;;;;;;2.53;1.33;;;22.60;76.10;;;;;;4964971;28;20070;-18
2023/07/14 07:56:48;;;;;;;1.70;1.10;;;22.80;76.10;;;;;;4960816;28;20240;-18
2023/07/14 07:59:15;;;;;;;2.15;1.20;;;23.00;75.70;;;;;;4955809;28;20615;-18
2023/07/14 08:01:42;;;;;;;2.17;1.30;;;23.10;75.70;;;;;;4955755;28;20065;-19
2023/07/14 08:04:08;;;;;;;1.67;1.30;;;23.30;76.40;;;;;;4951588;28;20040;-19
2023/07/14 08:06:36;;;;;;;2.38;1.10;;;23.50;77.10;;;;;;4947450;28;20481;-19
2023/07/14 08:09:04;;;;;;;1.40;1.10;;;23.80;77.00;;;;;;4952740;28;20108;-18
2023/07/14 08:11:30;;;;;;;1.83;1.20;;;24.10;76.00;;;;;;4967432;28;20034;-19
2023/07/14 08:13:58;;;;;;;2.03;1.20;;;24.30;75.30;;;;;;4946916;28;20061;-19
2023/07/14 08:16:25;;;;;;;2.58;1.20;;;24.50;74.70;;;;;;4950592;28;20625;-19
2023/07/14 08:18:50;;;;;;;1.98;1.30;;;24.70;75.10;;;;;;4946926;28;20048;-19
2023/07/14 08:21:17;;;;;;;1.27;1.00;;;24.90;75.10;;;;;;4959662;28;20493;-19
2023/07/14 08:23:42;;;;;;;1.87;1.10;;;25.10;75.20;;;;;;4952415;28;20732;-19
2023/07/14 08:26:08;;;;;;;2.42;1.13;;;25.40;74.70;;;;;;4966404;28;20026;-18
2023/07/14 08:28:34;;;;;;;2.03;1.27;;;25.70;74.10;;;;;;4933625;28;20027;-19
2023/07/14 08:31:03;;;;;;;2.17;1.30;;;25.90;73.30;;;;;;4965996;28;20076;-19
2023/07/14 08:33:29;;;;;;;2.00;1.20;;;26.10;73.30;;;;;;4935690;28;20045;-19
2023/07/14 08:36:00;;;;;;;2.13;1.30;;;26.30;73.50;;;;;;4918948;28;20045;-18
2023/07/14 08:38:30;;;;;;;1.80;1.35;;;26.60;72.60;;;;;;4952109;28;20038;-19
2023/07/14 08:41:26;;;;;;;2.50;1.33;;;26.80;72.00;;;;;;4976773;28;20497;-18
2023/07/14 08:43:52;;;;;;;2.13;1.20;;;27.00;70.40;;;;;;4950628;28;20552;-19
2023/07/14 08:46:33;;;;;;;1.98;1.30;;;27.30;73.30;;;;;;4964327;28;20117;-19
2023/07/14 08:49:17;;;;;;;2.13;1.30;;;27.50;69.50;;;;;;4965544;28;20228;-19
2023/07/14 08:51:45;;;;;;;1.65;1.20;;;27.70;68.10;;;;;;4921389;28;20677;-18
2023/07/14 08:54:24;;;;;;;2.03;1.00;;;27.80;69.40;;;;;;4955396;28;20117;-18
2023/07/14 08:56:51;;;;;;;1.92;1.10;;;27.80;67.10;;;;;;4964582;28;20433;-19
2023/07/14 08:59:28;;;;;;;2.08;1.25;;;27.90;68.20;;;;;;4967522;28;20030;-19
2023/07/14 09:01:57;;;;;;;1.75;1.17;;;27.90;67.40;;;;;;4964528;28;20042;-18
2023/07/14 09:04:32;;;;;;;2.03;1.30;;;27.90;67.90;;;;;;4954425;28;20053;-19
2023/07/14 09:06:57;;;;;;;2.80;1.43;;;28.10;67.60;;;;;;4956513;28;20023;-18
2023/07/14 09:09:32;;;;;;;1.70;1.30;;;28.20;68.60;;;;;;4955322;28;20101;-19
2023/07/14 09:12:22;;;;;;;2.15;1.35;;;28.40;67.00;;;;;;4965848;28;20023;-18
2023/07/14 09:14:51;;;;;;;2.03;1.30;;;28.60;66.70;;;;;;4968752;28;20283;-19
2023/07/14 09:17:17;;;;;;;2.63;1.20;;;28.80;69.20;;;;;;4955464;28;20049;-19
2023/07/14 09:20:16;;;;;;;2.65;1.50;;;29.10;69.60;;;;;;4950668;28;20030;-18
2023/07/14 09:22:45;;;;;;;1.90;1.30;;;29.50;67.00;;;;;;4934771;28;20104;-18
2023/07/14 09:25:23;;;;;;;2.13;1.17;;;29.90;68.30;;;;;;4964960;28;20042;-18
2023/07/14 09:27:51;;;;;;;2.03;1.30;;;30.10;65.00;;;;;;4964502;28;20654;-19
2023/07/14 09:30:23;;;;;;;1.60;1.30;;;30.30;64.10;;;;;;4969943;28;20051;-20
2023/07/14 09:33:00;;;;;;;2.10;1.30;;;30.30;62.30;;;;;;4945299;28;20781;-19
2023/07/14 09:35:28;;;;;;;2.05;1.27;;;30.30;60.80;;;;;;4966193;28;20141;-19
2023/07/14 09:38:22;;;;;;;1.67;1.20;;;30.30;62.20;;;;;;4935802;28;20183;-18
2023/07/14 09:40:53;;;;;;;1.83;1.42;;;30.30;60.50;;;;;;4962107;28;20045;-19
2023/07/14 09:43:19;;;;;;;1.60;1.30;;;30.30;61.10;;;;;;4960560;28;20438;-20
2023/07/14 09:45:45;;;;;;;1.92;1.20;;;30.20;61.00;;;;;;4965189;28;20160;-19
2023/07/14 09:48:30;;;;;;;1.75;1.27;;;30.20;60.50;;;;;;4942054;28;20038;-19
2023/07/14 09:51:00;;;;;;;1.75;1.10;;;30.00;58.30;;;;;;4963026;28;20035;-18
2023/07/14 09:53:27;;;;;;;2.47;1.50;;;30.00;60.00;;;;;;4938314;28;20031;-19
2023/07/14 09:56:04;;;;;;;2.55;1.30;;;29.90;59.60;;;;;;4962216;28;20543;-19
2023/07/14 09:58:32;;;;;;;2.13;1.30;;;29.80;58.50;;;;;;4941894;28;20218;-19
2023/07/14 10:01:02;;;;;;;3.03;1.50;;;29.60;58.80;;;;;;4967987;28;20386;-18
2023/07/14 10:03:46;;;;;;;1.90;1.20;;;29.50;58.40;;;;;;4959811;28;20046;-19
2023/07/14 10:06:20;;;;;;;2.20;1.20;;;29.40;58.40;;;;;;4968993;28;20025;-18
2023/07/14 10:09:11;;;;;;;2.20;1.30;;;29.20;58.40;;;;;;4934499;28;20206;-18
2023/07/14 10:11:48;;;;;;;1.90;1.38;;;29.10;57.30;;;;;;4957390;28;20805;-18
2023/07/14 10:14:35;;;;;;;2.85;1.48;;;29.00;57.60;;;;;;4955482;28;20061;-19
2023/07/14 10:17:02;;;;;;;2.67;1.30;;;28.90;57.20;;;;;;4967549;28;20113;-19
2023/07/14 10:19:39;;;;;;;3.03;1.50;;;28.70;58.00;;;;;;4957408;28;20046;-18
2023/07/14 10:22:18;;;;;;;2.88;1.45;;;28.60;57.40;;;;;;4960782;28;20038;-19
2023/07/14 10:24:46;;;;;;;2.05;1.40;;;28.50;57.40;;;;;;4937844;28;20587;-18
2023/07/14 10:27:23;;;;;;;1.75;1.25;;;28.40;58.40;;;;;;4967172;28;20533;-19
2023/07/14 10:29:50;;;;;;;1.42;1.20;;;28.40;58.10;;;;;;4947681;28;20021;-18
2023/07/14 10:32:29;;;;;;;2.50;1.40;;;28.30;58.50;;;;;;4966788;28;20045;-19
2023/07/14 10:35:05;;;;;;;2.50;1.35;;;28.30;57.90;;;;;;4959218;28;20454;-19
2023/07/14 10:37:36;;;;;;;2.35;1.40;;;28.20;57.60;;;;;;4962882;28;20232;-18
2023/07/14 10:40:17;;;;;;;2.90;1.33;;;28.20;57.80;;;;;;4938135;28;20037;-19
2023/07/14 10:42:52;;;;;;;2.92;1.48;;;28.20;57.70;;;;;;4952722;28;20081;-19
2023/07/14 10:45:18;;;;;;;3.03;1.47;;;28.10;57.90;;;;;;4949752;28;20430;-19
2023/07/14 10:48:00;;;;;;;2.28;1.40;;;28.00;58.10;;;;;;4966624;28;20307;-19
2023/07/14 10:50:54;;;;;;;3.03;1.30;;;27.90;58.20;;;;;;4943777;28;20042;-19
2023/07/14 10:53:38;;;;;;;2.50;1.30;;;27.90;58.20;;;;;;4981454;28;20124;-18
2023/07/14 10:56:13;;;;;;;3.17;1.50;;;27.90;58.40;;;;;;4928267;28;20069;-18
2023/07/14 10:58:53;;;;;;;2.50;1.50;;;28.00;58.90;;;;;;4974456;28;20033;-19
2023/07/14 11:01:36;;;;;;;2.63;1.30;;;28.00;58.60;;;;;;4958782;28;20127;-19
2023/07/14 11:04:22;;;;;;;2.15;1.30;;;28.10;58.70;;;;;;4966823;28;20030;-19
2023/07/14 11:06:52;;;;;;;2.03;1.40;;;28.30;58.80;;;;;;4947856;28;20234;-18
2023/07/14 11:09:18;;;;;;;2.47;1.30;;;28.40;59.50;;;;;;4969722;28;20493;-19
2023/07/14 11:12:00;;;;;;;2.05;1.25;;;28.50;60.10;;;;;;4939691;28;20296;-19
2023/07/14 11:15:05;;;;;;;2.70;1.60;;;28.80;59.10;;;;;;4967298;28;20085;-19
2023/07/14 11:17:51;;;;;;;2.47;1.40;;;29.00;58.60;;;;;;4959378;28;20263;-19
2023/07/14 11:20:33;;;;;;;2.23;1.40;;;29.20;59.70;;;;;;4946567;28;20039;-19
2023/07/14 11:23:17;;;;;;;1.88;1.30;;;29.50;59.00;;;;;;4951070;28;20402;-19
2023/07/14 11:26:05;;;;;;;2.15;1.40;;;29.70;58.60;;;;;;4964048;28;20513;-18
2023/07/14 11:28:31;;;;;;;2.45;1.30;;;30.00;58.60;;;;;;4933747;28;20069;-19
2023/07/14 11:31:00;;;;;;;2.07;1.30;;;30.30;59.20;;;;;;4966445;28;20459;-19
2023/07/14 11:33:37;;;;;;;1.77;1.38;;;30.40;58.10;;;;;;4941310;28;20061;-19
2023/07/14 11:36:16;;;;;;;3.53;1.23;;;30.60;56.80;;;;;;4971189;28;20044;-19
2023/07/14 11:39:03;;;;;;;2.50;1.20;;;30.80;56.70;;;;;;4956816;28;20251;-18
2023/07/14 11:41:31;;;;;;;2.07;1.30;;;31.00;56.90;;;;;;4960093;28;20030;-20
2023/07/14 11:44:00;;;;;;;2.10;1.30;;;31.20;57.30;;;;;;4937788;28;20031;-19
2023/07/14 11:46:26;;;;;;;1.98;1.42;;;31.30;56.70;;;;;;4951826;28;20433;-19
2023/07/14 11:48:52;;;;;;;1.80;1.20;;;31.30;55.50;;;;;;4959515;28;20057;-19
2023/07/14 11:51:20;;;;;;;1.70;1.20;;;31.30;55.00;;;;;;4954560;28;20120;-19
2023/07/14 11:54:06;;;;;;;2.28;1.20;;;31.10;54.50;;;;;;4955435;28;20045;-18
2023/07/14 11:56:39;;;;;;;2.05;1.20;;;31.10;53.30;;;;;;4975684;28;20042;-19
2023/07/14 11:59:12;;;;;;;2.20;1.30;;;31.00;54.00;;;;;;4940835;28;20042;-19
2023/07/14 12:01:45;;;;;;;1.52;1.20;;;30.90;54.90;;;;;;4961913;28;20433;-19
2023/07/14 12:04:33;;;;;;;1.47;1.10;;;30.90;53.80;;;;;;4970986;28;20491;-19
2023/07/14 12:07:19;;;;;;;2.03;1.30;;;30.90;53.30;;;;;;4963449;28;20504;-18
2023/07/14 12:10:20;;;;;;;1.40;1.13;;;30.90;52.70;;;;;;4968294;28;20045;-18
2023/07/14 12:13:18;;;;;;;1.83;1.20;;;30.90;54.00;;;;;;4963866;28;20043;-19
2023/07/14 12:15:56;;;;;;;1.20;1.10;;;31.10;54.20;;;;;;4936330;28;20062;-19
2023/07/14 12:18:30;;;;;;;1.63;1.13;;;31.30;54.50;;;;;;4952635;28;20088;-19
2023/07/14 12:21:14;;;;;;;1.55;0.98;;;31.30;53.60;;;;;;4966275;28;20110;-19
2023/07/14 12:23:41;;;;;;;1.83;1.25;;;31.50;52.90;;;;;;4958254;28;20152;-19
2023/07/14 12:26:22;;;;;;;1.40;1.30;;;31.60;54.20;;;;;;4954034;28;20058;-19
2023/07/14 12:28:48;;;;;;;1.35;1.13;;;31.90;52.70;;;;;;4965333;28;20445;-19
2023/07/14 12:31:17;;;;;;;1.93;1.40;;;32.00;53.20;;;;;;4938178;28;20029;-19
2023/07/14 12:33:44;;;;;;;2.17;1.40;;;32.20;52.30;;;;;;4966120;28;20132;-19
2023/07/14 12:36:18;;;;;;;1.70;1.35;;;32.30;52.30;;;;;;4957228;28;20026;-19
2023/07/14 12:38:49;;;;;;;1.48;1.38;;;32.40;51.10;;;;;;4957446;28;20481;-19
2023/07/14 12:41:19;;;;;;;2.42;1.40;;;32.60;52.40;;;;;;4969756;28;20062;-20
2023/07/14 12:43:48;;;;;;;2.03;1.40;;;32.80;52.10;;;;;;4965608;28;21402;-19
2023/07/14 12:46:25;;;;;;;2.22;1.40;;;33.00;52.50;;;;;;4952434;28;20019;-19
2023/07/14 12:49:02;;;;;;;2.47;1.65;;;33.30;50.90;;;;;;4966728;28;20105;-19
2023/07/14 12:51:29;;;;;;;2.72;1.27;;;33.40;50.20;;;;;;4956972;28;20288;-19
2023/07/14 12:54:01;;;;;;;2.15;1.27;;;33.50;49.90;;;;;;4963335;28;20037;-19
2023/07/14 12:56:31;;;;;;;2.20;1.30;;;33.50;48.30;;;;;;4938683;28;20526;-19
2023/07/14 12:59:01;;;;;;;3.33;1.40;;;33.40;48.00;;;;;;4984128;28;20030;-19
2023/07/14 13:01:28;;;;;;;1.67;1.20;;;33.20;47.80;;;;;;4938452;28;20244;-19
2023/07/14 13:03:53;;;;;;;2.30;1.38;;;33.00;47.70;;;;;;4965362;28;20034;-19
2023/07/14 13:06:23;;;;;;;2.40;1.20;;;32.80;47.70;;;;;;4960024;28;20599;-19